Dora, Missouri
Current Conditions -  °F | °C
As of 12:53 AM on Monday 24 Nov 2014 (Local Time) from KUNO Reporting Station
Light Rain Light Rain  
Wind Chill: 39°   Ceiling: 800
Heat Index: 46°   Visibility: 8mi
Dew Point: 43°   Wind: 16mph
Humidity: 89%   Direction: 300°WNW
Pressure: 29.38"   Gusts: 29mph
Location:  36.78°N, 92.22°W
Report Text: KUNO 240653Z AUTO 30014G25KT 8SM -RA BKN008 OVC016 08/06 A2938 RMK AO2 PK WND 28029/0618 RAB22 CIG 007V010 SLP947 P0001 T00780061
Loading
Personal Weather Stations






























Interactive Weather Map New forecast layout! Learn more

10-Day Weather Forecast

Advertisements
Track Severe Weather on mobile